LHA2591 EDDN-LKPR
Flight info
| Callsign | LHA2591 |
|---|---|
| Flight time | 0h 36m |
| Altitude | 19000 |
| Route | RODI1G RODIS Z410 AGNAV DCT LOMKI |
| Aircraft | DH8D/M-SDE1E2FGIJ1RWYZ/S |
Departure
| Time | 2026-05-05 09:43 |
|---|---|
| Airport | Nuremberg Airport (EDDN) |
Arrival
| Time | 2026-05-05 10:19 |
|---|---|
| Airport | Václav Havel Airport Prague (LKPR) |
| Time | Latitude | Longitude | Altitude | Speed | Heading |
|---|---|---|---|---|---|
| 2026-05-05 09:20 | 49.49499 | 11.08044 | 1051 ft | 0 kts | 188° |
| 2026-05-05 09:35 | 49.49505 | 11.08046 | 1051 ft | 2 kts | 188° |
| 2026-05-05 09:36 | 49.49520 | 11.08049 | 1051 ft | 2 kts | 188° |
| 2026-05-05 09:36 | 49.49535 | 11.08052 | 1051 ft | 2 kts | 188° |
| 2026-05-05 09:36 | 49.49543 | 11.08054 | 1051 ft | 2 kts | 178° |
| 2026-05-05 09:36 | 49.49556 | 11.08045 | 1051 ft | 2 kts | 126° |
| 2026-05-05 09:37 | 49.49560 | 11.08029 | 1051 ft | 1 kts | 97° |
| 2026-05-05 09:37 | 49.49560 | 11.08027 | 1051 ft | 0 kts | 97° |
| 2026-05-05 09:39 | 49.49556 | 11.08070 | 1051 ft | 8 kts | 98° |
| 2026-05-05 09:40 | 49.49544 | 11.08198 | 1051 ft | 15 kts | 98° |
| 2026-05-05 09:40 | 49.49571 | 11.08357 | 1051 ft | 18 kts | 25° |
| 2026-05-05 09:40 | 49.49610 | 11.08514 | 1051 ft | 17 kts | 98° |
| 2026-05-05 09:40 | 49.49589 | 11.08709 | 1051 ft | 18 kts | 99° |
| 2026-05-05 09:41 | 49.49571 | 11.08897 | 1051 ft | 17 kts | 98° |
| 2026-05-05 09:41 | 49.49553 | 11.09073 | 1051 ft | 16 kts | 98° |
| 2026-05-05 09:41 | 49.49535 | 11.09237 | 1051 ft | 15 kts | 99° |
| 2026-05-05 09:41 | 49.49547 | 11.09391 | 1051 ft | 14 kts | 56° |
| 2026-05-05 09:42 | 49.49605 | 11.09512 | 1051 ft | 13 kts | 53° |
| 2026-05-05 09:42 | 49.49683 | 11.09554 | 1051 ft | 12 kts | 329° |
| 2026-05-05 09:42 | 49.49704 | 11.09491 | 1051 ft | 0 kts | 278° |
| 2026-05-05 09:43 | 49.49711 | 11.09421 | 1051 ft | 37 kts | 279° |
| 2026-05-05 09:43 | 49.49802 | 11.08475 | 1052 ft | 132 kts | 278° |
| 2026-05-05 09:43 | 49.49952 | 11.06973 | 1451 ft | 147 kts | 280° |
| 2026-05-05 09:43 | 49.50196 | 11.05387 | 1944 ft | 164 kts | 283° |
| 2026-05-05 09:44 | 49.50361 | 11.03741 | 2787 ft | 160 kts | 279° |
| 2026-05-05 09:44 | 49.50519 | 11.02027 | 3359 ft | 171 kts | 279° |
| 2026-05-05 09:44 | 49.50700 | 11.00117 | 3780 ft | 186 kts | 279° |
| 2026-05-05 09:44 | 49.50889 | 10.98162 | 4381 ft | 191 kts | 279° |
| 2026-05-05 09:45 | 49.51085 | 10.96145 | 5029 ft | 194 kts | 279° |
| 2026-05-05 09:45 | 49.51362 | 10.94129 | 5667 ft | 196 kts | 294° |
| 2026-05-05 09:45 | 49.52324 | 10.92754 | 6170 ft | 198 kts | 345° |
| 2026-05-05 09:45 | 49.53691 | 10.92593 | 6747 ft | 199 kts | 2° |
| 2026-05-05 09:46 | 49.55082 | 10.92626 | 7363 ft | 202 kts | 2° |
| 2026-05-05 09:46 | 49.56475 | 10.92661 | 7943 ft | 206 kts | 2° |
| 2026-05-05 09:46 | 49.57922 | 10.92699 | 8523 ft | 209 kts | 1° |
| 2026-05-05 09:46 | 49.59361 | 10.92737 | 9104 ft | 212 kts | 1° |
| 2026-05-05 09:47 | 49.60847 | 10.92776 | 9693 ft | 214 kts | 1° |
| 2026-05-05 09:47 | 49.62349 | 10.92816 | 10230 ft | 220 kts | 0° |
| 2026-05-05 09:47 | 49.63957 | 10.92854 | 10342 ft | 246 kts | 0° |
| 2026-05-05 09:47 | 49.65718 | 10.92895 | 10742 ft | 257 kts | 0° |
| 2026-05-05 09:48 | 49.67510 | 10.93070 | 11221 ft | 262 kts | 13° |
| 2026-05-05 09:48 | 49.69044 | 10.94459 | 11689 ft | 261 kts | 51° |
| 2026-05-05 09:48 | 49.69733 | 10.96998 | 12106 ft | 258 kts | 88° |
| 2026-05-05 09:48 | 49.69709 | 10.99730 | 12576 ft | 260 kts | 96° |
| 2026-05-05 09:49 | 49.69603 | 11.02526 | 13111 ft | 261 kts | 96° |
| 2026-05-05 09:49 | 49.69484 | 11.05307 | 13613 ft | 263 kts | 97° |
| 2026-05-05 09:49 | 49.69357 | 11.08128 | 14104 ft | 264 kts | 97° |
| 2026-05-05 09:49 | 49.69226 | 11.10939 | 14575 ft | 266 kts | 97° |
| 2026-05-05 09:50 | 49.69090 | 11.13778 | 15010 ft | 269 kts | 97° |
| 2026-05-05 09:50 | 49.68948 | 11.16691 | 15457 ft | 271 kts | 97° |
| 2026-05-05 09:50 | 49.68798 | 11.19563 | 15898 ft | 272 kts | 99° |
| 2026-05-05 09:50 | 49.68264 | 11.22301 | 16267 ft | 268 kts | 120° |
| 2026-05-05 09:51 | 49.67370 | 11.24836 | 16671 ft | 269 kts | 122° |
| 2026-05-05 09:51 | 49.66460 | 11.27353 | 17057 ft | 271 kts | 122° |
| 2026-05-05 09:51 | 49.65535 | 11.29913 | 17455 ft | 273 kts | 122° |
| 2026-05-05 09:51 | 49.64623 | 11.32437 | 17818 ft | 275 kts | 122° |
| 2026-05-05 09:52 | 49.63691 | 11.35024 | 18174 ft | 276 kts | 122° |
| 2026-05-05 09:52 | 49.62750 | 11.37636 | 18519 ft | 279 kts | 122° |
| 2026-05-05 09:52 | 49.61814 | 11.40235 | 18876 ft | 280 kts | 122° |
| 2026-05-05 09:52 | 49.60867 | 11.42866 | 19210 ft | 282 kts | 122° |
| 2026-05-05 09:53 | 49.59921 | 11.45495 | 19550 ft | 283 kts | 122° |
| 2026-05-05 09:53 | 49.58963 | 11.48155 | 19877 ft | 285 kts | 122° |
| 2026-05-05 09:53 | 49.58007 | 11.50809 | 20165 ft | 286 kts | 122° |
| 2026-05-05 09:53 | 49.57033 | 11.53509 | 20447 ft | 288 kts | 121° |
| 2026-05-05 09:54 | 49.56213 | 11.56286 | 20708 ft | 291 kts | 113° |
| 2026-05-05 09:54 | 49.55532 | 11.59264 | 20808 ft | 299 kts | 111° |
| 2026-05-05 09:54 | 49.54841 | 11.62342 | 20833 ft | 308 kts | 111° |
| 2026-05-05 09:54 | 49.54136 | 11.65479 | 20841 ft | 315 kts | 112° |
| 2026-05-05 09:55 | 49.53409 | 11.68700 | 20839 ft | 322 kts | 112° |
| 2026-05-05 09:55 | 49.52665 | 11.71980 | 20834 ft | 326 kts | 112° |
| 2026-05-05 09:55 | 49.51936 | 11.75205 | 20823 ft | 320 kts | 112° |
| 2026-05-05 09:55 | 49.51212 | 11.78405 | 20827 ft | 315 kts | 112° |
| 2026-05-05 09:56 | 49.50491 | 11.81574 | 20828 ft | 311 kts | 112° |
| 2026-05-05 09:56 | 49.49781 | 11.84680 | 20832 ft | 309 kts | 112° |
| 2026-05-05 09:56 | 49.49064 | 11.87808 | 20834 ft | 309 kts | 112° |
| 2026-05-05 09:56 | 49.48351 | 11.90910 | 20831 ft | 309 kts | 112° |
| 2026-05-05 09:57 | 49.47694 | 11.94029 | 20820 ft | 311 kts | 104° |
| 2026-05-05 09:57 | 49.47725 | 11.97326 | 20852 ft | 313 kts | 82° |
| 2026-05-05 09:57 | 49.48180 | 12.00611 | 20843 ft | 314 kts | 79° |
| 2026-05-05 09:57 | 49.48657 | 12.03889 | 20837 ft | 314 kts | 79° |
| 2026-05-05 09:58 | 49.49133 | 12.07160 | 20837 ft | 314 kts | 79° |
| 2026-05-05 09:58 | 49.49606 | 12.10425 | 20840 ft | 315 kts | 79° |
| 2026-05-05 09:58 | 49.50075 | 12.13690 | 20836 ft | 315 kts | 79° |
| 2026-05-05 09:58 | 49.50544 | 12.16967 | 20835 ft | 315 kts | 79° |
| 2026-05-05 09:59 | 49.51017 | 12.20283 | 20835 ft | 316 kts | 79° |
| 2026-05-05 09:59 | 49.51482 | 12.23562 | 20830 ft | 316 kts | 79° |
| 2026-05-05 09:59 | 49.51950 | 12.26864 | 20829 ft | 316 kts | 79° |
| 2026-05-05 09:59 | 49.52414 | 12.30150 | 20830 ft | 316 kts | 79° |
| 2026-05-05 10:00 | 49.52880 | 12.33469 | 20830 ft | 316 kts | 79° |
| 2026-05-05 10:00 | 49.53344 | 12.36775 | 20831 ft | 316 kts | 79° |
| 2026-05-05 10:00 | 49.53805 | 12.40071 | 20832 ft | 316 kts | 79° |
| 2026-05-05 10:00 | 49.54263 | 12.43349 | 20833 ft | 316 kts | 79° |
| 2026-05-05 10:01 | 49.54721 | 12.46637 | 20838 ft | 316 kts | 79° |
| 2026-05-05 10:01 | 49.55179 | 12.49939 | 20840 ft | 316 kts | 79° |
| 2026-05-05 10:01 | 49.55639 | 12.53252 | 20841 ft | 316 kts | 79° |
| 2026-05-05 10:01 | 49.56094 | 12.56545 | 20840 ft | 316 kts | 79° |
| 2026-05-05 10:02 | 49.56564 | 12.59835 | 20832 ft | 316 kts | 76° |
| 2026-05-05 10:02 | 49.57519 | 12.62852 | 20846 ft | 315 kts | 53° |
| 2026-05-05 10:02 | 49.58911 | 12.65447 | 20838 ft | 316 kts | 50° |
| 2026-05-05 10:02 | 49.60322 | 12.67995 | 20836 ft | 316 kts | 50° |
| 2026-05-05 10:03 | 49.61760 | 12.70590 | 20839 ft | 316 kts | 50° |
| 2026-05-05 10:03 | 49.63181 | 12.73161 | 20835 ft | 316 kts | 50° |
| 2026-05-05 10:03 | 49.64603 | 12.75741 | 20836 ft | 316 kts | 50° |
| 2026-05-05 10:03 | 49.66013 | 12.78304 | 20835 ft | 316 kts | 50° |
| 2026-05-05 10:04 | 49.67426 | 12.80879 | 20835 ft | 316 kts | 50° |
| 2026-05-05 10:04 | 49.68849 | 12.83476 | 20836 ft | 317 kts | 50° |
| 2026-05-05 10:04 | 49.70268 | 12.86069 | 20833 ft | 317 kts | 50° |
| 2026-05-05 10:04 | 49.71685 | 12.88663 | 20827 ft | 317 kts | 50° |
| 2026-05-05 10:05 | 49.73108 | 12.91265 | 20425 ft | 316 kts | 50° |
| 2026-05-05 10:05 | 49.74498 | 12.93805 | 19999 ft | 313 kts | 50° |
| 2026-05-05 10:05 | 49.75891 | 12.96356 | 19562 ft | 310 kts | 50° |
| 2026-05-05 10:05 | 49.77271 | 12.98888 | 19132 ft | 308 kts | 50° |
| 2026-05-05 10:06 | 49.78654 | 13.01431 | 18697 ft | 308 kts | 50° |
| 2026-05-05 10:06 | 49.80024 | 13.03953 | 18259 ft | 308 kts | 50° |
| 2026-05-05 10:06 | 49.81395 | 13.06480 | 17830 ft | 308 kts | 50° |
| 2026-05-05 10:06 | 49.82768 | 13.09015 | 17399 ft | 309 kts | 50° |
| 2026-05-05 10:07 | 49.84140 | 13.11552 | 16962 ft | 310 kts | 50° |
| 2026-05-05 10:07 | 49.85513 | 13.14089 | 16530 ft | 310 kts | 50° |
| 2026-05-05 10:07 | 49.86897 | 13.16654 | 16087 ft | 311 kts | 50° |
| 2026-05-05 10:07 | 49.88287 | 13.19229 | 15640 ft | 312 kts | 50° |
| 2026-05-05 10:08 | 49.89655 | 13.21782 | 15176 ft | 314 kts | 51° |
| 2026-05-05 10:08 | 49.90675 | 13.24768 | 14680 ft | 312 kts | 78° |
| 2026-05-05 10:08 | 49.90797 | 13.28070 | 14282 ft | 307 kts | 94° |
| 2026-05-05 10:08 | 49.90692 | 13.31333 | 13837 ft | 308 kts | 96° |
| 2026-05-05 10:09 | 49.90569 | 13.34656 | 13403 ft | 308 kts | 96° |
| 2026-05-05 10:09 | 49.90445 | 13.37953 | 12968 ft | 308 kts | 95° |
| 2026-05-05 10:09 | 49.90320 | 13.41273 | 12522 ft | 308 kts | 95° |
| 2026-05-05 10:09 | 49.90197 | 13.44540 | 12090 ft | 307 kts | 95° |
| 2026-05-05 10:10 | 49.90074 | 13.47820 | 11643 ft | 307 kts | 95° |
| 2026-05-05 10:10 | 49.89949 | 13.51128 | 11210 ft | 305 kts | 95° |
| 2026-05-05 10:10 | 49.89854 | 13.54405 | 10742 ft | 305 kts | 90° |
| 2026-05-05 10:10 | 49.90348 | 13.57572 | 10330 ft | 304 kts | 68° |
| 2026-05-05 10:11 | 49.91236 | 13.60511 | 9901 ft | 303 kts | 65° |
| 2026-05-05 10:11 | 49.92147 | 13.63451 | 9468 ft | 302 kts | 64° |
| 2026-05-05 10:11 | 49.93049 | 13.66350 | 9094 ft | 298 kts | 65° |
| 2026-05-05 10:11 | 49.93941 | 13.69224 | 8715 ft | 292 kts | 65° |
| 2026-05-05 10:12 | 49.94804 | 13.72007 | 8327 ft | 282 kts | 65° |
| 2026-05-05 10:12 | 49.95636 | 13.74697 | 7937 ft | 272 kts | 65° |
| 2026-05-05 10:12 | 49.96432 | 13.77279 | 7568 ft | 263 kts | 65° |
| 2026-05-05 10:12 | 49.97210 | 13.79810 | 7204 ft | 254 kts | 65° |
| 2026-05-05 10:13 | 49.97945 | 13.82208 | 6856 ft | 246 kts | 65° |
| 2026-05-05 10:13 | 49.98677 | 13.84598 | 6508 ft | 238 kts | 64° |
| 2026-05-05 10:13 | 49.99368 | 13.86861 | 6175 ft | 231 kts | 64° |
| 2026-05-05 10:13 | 50.00041 | 13.89065 | 5855 ft | 223 kts | 64° |
| 2026-05-05 10:14 | 50.00700 | 13.91226 | 5542 ft | 215 kts | 64° |
| 2026-05-05 10:14 | 50.01319 | 13.93287 | 5221 ft | 209 kts | 64° |
| 2026-05-05 10:14 | 50.01933 | 13.95300 | 4876 ft | 202 kts | 64° |
| 2026-05-05 10:14 | 50.02507 | 13.97211 | 4570 ft | 193 kts | 64° |
| 2026-05-05 10:15 | 50.03064 | 13.99051 | 4292 ft | 182 kts | 63° |
| 2026-05-05 10:15 | 50.03583 | 14.00765 | 4035 ft | 169 kts | 63° |
| 2026-05-05 10:15 | 50.04064 | 14.02348 | 3787 ft | 154 kts | 63° |
| 2026-05-05 10:15 | 50.04496 | 14.03772 | 3524 ft | 139 kts | 63° |
| 2026-05-05 10:16 | 50.04892 | 14.05105 | 3386 ft | 132 kts | 64° |
| 2026-05-05 10:16 | 50.05275 | 14.06412 | 3340 ft | 133 kts | 64° |
| 2026-05-05 10:16 | 50.05672 | 14.07728 | 3237 ft | 138 kts | 64° |
| 2026-05-05 10:16 | 50.06092 | 14.09116 | 3092 ft | 146 kts | 63° |
| 2026-05-05 10:17 | 50.06533 | 14.10572 | 2927 ft | 149 kts | 63° |
| 2026-05-05 10:17 | 50.06977 | 14.12033 | 2703 ft | 151 kts | 64° |
| 2026-05-05 10:17 | 50.07425 | 14.13511 | 2481 ft | 150 kts | 65° |
| 2026-05-05 10:17 | 50.07865 | 14.14963 | 2272 ft | 148 kts | 65° |
| 2026-05-05 10:18 | 50.08295 | 14.16389 | 2057 ft | 144 kts | 63° |
| 2026-05-05 10:18 | 50.08711 | 14.17767 | 1886 ft | 141 kts | 64° |
| 2026-05-05 10:18 | 50.09125 | 14.19142 | 1710 ft | 140 kts | 64° |
| 2026-05-05 10:18 | 50.09540 | 14.20517 | 1529 ft | 139 kts | 66° |
| 2026-05-05 10:19 | 50.09946 | 14.21863 | 1352 ft | 137 kts | 65° |
| 2026-05-05 10:19 | 50.10352 | 14.23211 | 1194 ft | 133 kts | 65° |
| 2026-05-05 10:19 | 50.10694 | 14.24324 | 1173 ft | 86 kts | 63° |
| 2026-05-05 10:19 | 50.10829 | 14.24868 | 1173 ft | 32 kts | 87° |
| 2026-05-05 10:20 | 50.10809 | 14.25169 | 1173 ft | 24 kts | 100° |
| 2026-05-05 10:20 | 50.10739 | 14.25360 | 1173 ft | 18 kts | 118° |
| 2026-05-05 10:20 | 50.10687 | 14.25513 | 1173 ft | 14 kts | 118° |
| 2026-05-05 10:20 | 50.10638 | 14.25651 | 1173 ft | 15 kts | 118° |
| 2026-05-05 10:21 | 50.10618 | 14.25799 | 1173 ft | 14 kts | 50° |
| 2026-05-05 10:21 | 50.10696 | 14.25889 | 1173 ft | 13 kts | 33° |
| 2026-05-05 10:21 | 50.10773 | 14.25969 | 1172 ft | 13 kts | 34° |
| 2026-05-05 10:21 | 50.10817 | 14.26017 | 1172 ft | 6 kts | 34° |
| 2026-05-05 10:22 | 50.10833 | 14.26063 | 1172 ft | 5 kts | 102° |
| 2026-05-05 10:22 | 50.10811 | 14.26125 | 1172 ft | 2 kts | 124° |
| 2026-05-05 10:22 | 50.10806 | 14.26138 | 1172 ft | 0 kts | 123° |